sensor_id;sensor_type;location;lat;lon;timestamp;P1;durP1;ratioP1;P2;durP2;ratioP2
70635;SDS011;58206;47.310;19.502;2022-09-09T00:02:20;9.00;;;4.75;;
70635;SDS011;58206;47.310;19.502;2022-09-09T00:05:17;8.88;;;4.45;;
70635;SDS011;58206;47.310;19.502;2022-09-09T00:08:06;8.73;;;4.77;;
70635;SDS011;58206;47.310;19.502;2022-09-09T00:10:58;8.95;;;4.20;;
70635;SDS011;58206;47.310;19.502;2022-09-09T00:13:48;8.10;;;4.22;;
70635;SDS011;58206;47.310;19.502;2022-09-09T00:16:35;8.00;;;4.55;;
70635;SDS011;58206;47.310;19.502;2022-09-09T00:19:33;10.27;;;4.80;;
70635;SDS011;58206;47.310;19.502;2022-09-09T00:22:23;8.53;;;4.70;;
70635;SDS011;58206;47.310;19.502;2022-09-09T00:25:12;8.93;;;4.70;;
70635;SDS011;58206;47.310;19.502;2022-09-09T00:28:01;9.00;;;4.95;;
70635;SDS011;58206;47.310;19.502;2022-09-09T00:30:47;8.55;;;4.78;;
70635;SDS011;58206;47.310;19.502;2022-09-09T00:33:32;9.52;;;4.30;;
70635;SDS011;58206;47.310;19.502;2022-09-09T00:36:18;8.77;;;4.50;;
70635;SDS011;58206;47.310;19.502;2022-09-09T00:39:04;9.07;;;4.57;;
70635;SDS011;58206;47.310;19.502;2022-09-09T00:42:00;8.70;;;5.00;;
70635;SDS011;58206;47.310;19.502;2022-09-09T00:48:13;7.10;;;4.50;;
70635;SDS011;58206;47.310;19.502;2022-09-09T00:53:37;11.10;;;4.53;;
70635;SDS011;58206;47.310;19.502;2022-09-09T00:56:28;8.88;;;4.75;;
70635;SDS011;58206;47.310;19.502;2022-09-09T00:59:24;10.25;;;4.45;;
70635;SDS011;58206;47.310;19.502;2022-09-09T01:02:15;7.30;;;4.00;;
70635;SDS011;58206;47.310;19.502;2022-09-09T01:05:13;7.33;;;4.00;;
70635;SDS011;58206;47.310;19.502;2022-09-09T01:08:03;7.32;;;3.88;;
70635;SDS011;58206;47.310;19.502;2022-09-09T01:10:51;7.38;;;3.97;;
70635;SDS011;58206;47.310;19.502;2022-09-09T01:13:42;7.75;;;4.00;;
70635;SDS011;58206;47.310;19.502;2022-09-09T01:16:30;8.32;;;3.95;;
70635;SDS011;58206;47.310;19.502;2022-09-09T01:19:24;7.53;;;4.23;;
70635;SDS011;58206;47.310;19.502;2022-09-09T01:22:32;8.02;;;4.30;;
70635;SDS011;58206;47.310;19.502;2022-09-09T01:28:36;7.65;;;4.18;;
70635;SDS011;58206;47.310;19.502;2022-09-09T01:31:40;7.85;;;3.92;;
70635;SDS011;58206;47.310;19.502;2022-09-09T01:34:31;7.40;;;4.10;;
70635;SDS011;58206;47.310;19.502;2022-09-09T01:37:28;8.35;;;4.03;;
70635;SDS011;58206;47.310;19.502;2022-09-09T01:40:13;7.13;;;4.13;;
70635;SDS011;58206;47.310;19.502;2022-09-09T01:42:57;7.43;;;3.80;;
70635;SDS011;58206;47.310;19.502;2022-09-09T01:45:42;6.63;;;3.50;;
70635;SDS011;58206;47.310;19.502;2022-09-09T01:48:27;10.87;;;3.80;;
70635;SDS011;58206;47.310;19.502;2022-09-09T01:51:31;6.60;;;3.30;;
70635;SDS011;58206;47.310;19.502;2022-09-09T01:54:20;7.32;;;3.50;;
70635;SDS011;58206;47.310;19.502;2022-09-09T01:57:23;6.97;;;3.28;;
70635;SDS011;58206;47.310;19.502;2022-09-09T02:00:10;6.75;;;3.25;;
70635;SDS011;58206;47.310;19.502;2022-09-09T02:08:59;8.43;;;3.58;;
70635;SDS011;58206;47.310;19.502;2022-09-09T02:11:44;6.78;;;3.13;;
70635;SDS011;58206;47.310;19.502;2022-09-09T02:14:52;5.90;;;3.00;;
70635;SDS011;58206;47.310;19.502;2022-09-09T02:17:40;6.30;;;3.00;;
70635;SDS011;58206;47.310;19.502;2022-09-09T02:20:31;9.25;;;3.20;;
70635;SDS011;58206;47.310;19.502;2022-09-09T02:23:18;7.13;;;3.30;;
70635;SDS011;58206;47.310;19.502;2022-09-09T02:26:11;6.45;;;3.22;;
70635;SDS011;58206;47.310;19.502;2022-09-09T02:28:59;7.00;;;3.35;;
70635;SDS011;58206;47.310;19.502;2022-09-09T02:31:46;6.90;;;3.47;;
70635;SDS011;58206;47.310;19.502;2022-09-09T02:34:36;7.90;;;3.05;;
70635;SDS011;58206;47.310;19.502;2022-09-09T02:37:23;7.88;;;3.15;;
70635;SDS011;58206;47.310;19.502;2022-09-09T02:40:13;6.80;;;3.00;;
70635;SDS011;58206;47.310;19.502;2022-09-09T02:43:05;6.28;;;2.97;;
70635;SDS011;58206;47.310;19.502;2022-09-09T02:49:23;5.60;;;2.90;;
70635;SDS011;58206;47.310;19.502;2022-09-09T02:52:08;6.40;;;2.80;;
70635;SDS011;58206;47.310;19.502;2022-09-09T02:54:57;5.97;;;2.60;;
70635;SDS011;58206;47.310;19.502;2022-09-09T02:57:44;10.27;;;3.10;;
70635;SDS011;58206;47.310;19.502;2022-09-09T03:00:33;5.93;;;3.20;;
70635;SDS011;58206;47.310;19.502;2022-09-09T03:03:20;6.00;;;3.20;;
70635;SDS011;58206;47.310;19.502;2022-09-09T03:06:08;6.68;;;3.38;;
70635;SDS011;58206;47.310;19.502;2022-09-09T03:08:52;6.97;;;3.50;;
70635;SDS011;58206;47.310;19.502;2022-09-09T03:11:41;7.97;;;3.53;;
70635;SDS011;58206;47.310;19.502;2022-09-09T03:14:25;6.33;;;3.30;;
70635;SDS011;58206;47.310;19.502;2022-09-09T03:17:10;6.30;;;3.40;;
70635;SDS011;58206;47.310;19.502;2022-09-09T03:20:02;6.38;;;3.47;;
70635;SDS011;58206;47.310;19.502;2022-09-09T03:22:47;6.10;;;3.25;;
70635;SDS011;58206;47.310;19.502;2022-09-09T03:25:31;6.68;;;3.10;;
70635;SDS011;58206;47.310;19.502;2022-09-09T03:28:16;6.40;;;3.33;;
70635;SDS011;58206;47.310;19.502;2022-09-09T03:31:02;8.10;;;3.72;;
70635;SDS011;58206;47.310;19.502;2022-09-09T03:33:50;6.78;;;3.80;;
70635;SDS011;58206;47.310;19.502;2022-09-09T03:36:36;6.90;;;3.75;;
70635;SDS011;58206;47.310;19.502;2022-09-09T03:39:22;6.57;;;3.42;;
70635;SDS011;58206;47.310;19.502;2022-09-09T03:42:07;7.73;;;3.40;;
70635;SDS011;58206;47.310;19.502;2022-09-09T03:44:51;8.30;;;3.90;;
70635;SDS011;58206;47.310;19.502;2022-09-09T03:47:39;7.18;;;3.63;;
70635;SDS011;58206;47.310;19.502;2022-09-09T03:50:24;8.23;;;3.42;;
70635;SDS011;58206;47.310;19.502;2022-09-09T03:53:10;8.30;;;4.18;;
70635;SDS011;58206;47.310;19.502;2022-09-09T03:55:55;7.27;;;4.13;;
70635;SDS011;58206;47.310;19.502;2022-09-09T03:58:43;7.22;;;3.83;;
70635;SDS011;58206;47.310;19.502;2022-09-09T04:01:29;7.32;;;3.97;;
70635;SDS011;58206;47.310;19.502;2022-09-09T04:04:14;7.63;;;3.92;;
70635;SDS011;58206;47.310;19.502;2022-09-09T04:06:58;9.82;;;4.43;;
70635;SDS011;58206;47.310;19.502;2022-09-09T04:09:43;7.90;;;4.27;;
70635;SDS011;58206;47.310;19.502;2022-09-09T04:12:27;8.77;;;3.95;;
70635;SDS011;58206;47.310;19.502;2022-09-09T04:15:11;9.32;;;4.80;;
70635;SDS011;58206;47.310;19.502;2022-09-09T04:17:57;8.95;;;4.15;;
70635;SDS011;58206;47.310;19.502;2022-09-09T04:20:41;8.10;;;4.38;;
70635;SDS011;58206;47.310;19.502;2022-09-09T04:23:27;8.73;;;4.57;;
70635;SDS011;58206;47.310;19.502;2022-09-09T04:26:16;7.68;;;4.68;;
70635;SDS011;58206;47.310;19.502;2022-09-09T04:29:03;8.15;;;5.00;;
70635;SDS011;58206;47.310;19.502;2022-09-09T04:31:48;9.07;;;5.32;;
70635;SDS011;58206;47.310;19.502;2022-09-09T04:34:32;9.32;;;4.88;;
70635;SDS011;58206;47.310;19.502;2022-09-09T04:37:17;8.47;;;4.70;;
70635;SDS011;58206;47.310;19.502;2022-09-09T04:40:02;9.13;;;4.38;;
70635;SDS011;58206;47.310;19.502;2022-09-09T04:42:48;8.57;;;4.80;;
70635;SDS011;58206;47.310;19.502;2022-09-09T04:45:33;7.63;;;4.40;;
70635;SDS011;58206;47.310;19.502;2022-09-09T04:48:19;7.93;;;4.47;;
70635;SDS011;58206;47.310;19.502;2022-09-09T04:51:04;7.90;;;4.90;;
70635;SDS011;58206;47.310;19.502;2022-09-09T04:53:50;8.10;;;4.90;;
70635;SDS011;58206;47.310;19.502;2022-09-09T04:56:35;7.78;;;4.80;;
70635;SDS011;58206;47.310;19.502;2022-09-09T04:59:20;8.32;;;4.63;;
70635;SDS011;58206;47.310;19.502;2022-09-09T05:02:09;8.40;;;5.40;;
70635;SDS011;58206;47.310;19.502;2022-09-09T05:04:55;9.60;;;5.20;;
70635;SDS011;58206;47.310;19.502;2022-09-09T05:07:41;9.50;;;4.85;;
70635;SDS011;58206;47.310;19.502;2022-09-09T05:10:26;10.23;;;5.20;;
70635;SDS011;58206;47.310;19.502;2022-09-09T05:13:11;10.65;;;5.65;;
70635;SDS011;58206;47.310;19.502;2022-09-09T05:15:55;8.57;;;4.90;;
70635;SDS011;58206;47.310;19.502;2022-09-09T05:18:40;9.13;;;5.30;;
70635;SDS011;58206;47.310;19.502;2022-09-09T05:21:26;8.30;;;5.20;;
70635;SDS011;58206;47.310;19.502;2022-09-09T05:24:13;8.98;;;4.88;;
70635;SDS011;58206;47.310;19.502;2022-09-09T05:26:58;10.98;;;5.35;;
70635;SDS011;58206;47.310;19.502;2022-09-09T05:29:44;9.40;;;5.30;;
70635;SDS011;58206;47.310;19.502;2022-09-09T05:32:30;8.97;;;5.00;;
70635;SDS011;58206;47.310;19.502;2022-09-09T05:35:19;8.07;;;5.20;;
70635;SDS011;58206;47.310;19.502;2022-09-09T05:38:06;8.10;;;5.13;;
70635;SDS011;58206;47.310;19.502;2022-09-09T05:40:51;9.07;;;4.68;;
70635;SDS011;58206;47.310;19.502;2022-09-09T05:43:37;7.70;;;4.80;;
70635;SDS011;58206;47.310;19.502;2022-09-09T05:46:22;8.47;;;5.10;;
70635;SDS011;58206;47.310;19.502;2022-09-09T05:49:09;8.32;;;5.00;;
70635;SDS011;58206;47.310;19.502;2022-09-09T05:51:56;11.75;;;5.10;;
70635;SDS011;58206;47.310;19.502;2022-09-09T05:54:41;10.05;;;5.30;;
70635;SDS011;58206;47.310;19.502;2022-09-09T05:57:28;9.02;;;4.85;;
70635;SDS011;58206;47.310;19.502;2022-09-09T06:00:13;9.00;;;5.47;;
70635;SDS011;58206;47.310;19.502;2022-09-09T06:03:00;7.72;;;4.75;;
70635;SDS011;58206;47.310;19.502;2022-09-09T06:05:45;6.72;;;3.95;;
70635;SDS011;58206;47.310;19.502;2022-09-09T06:08:29;5.82;;;4.00;;
70635;SDS011;58206;47.310;19.502;2022-09-09T06:11:15;5.82;;;3.90;;
70635;SDS011;58206;47.310;19.502;2022-09-09T06:14:01;7.93;;;3.90;;
70635;SDS011;58206;47.310;19.502;2022-09-09T06:16:47;6.22;;;3.88;;
70635;SDS011;58206;47.310;19.502;2022-09-09T06:19:36;6.25;;;3.47;;
70635;SDS011;58206;47.310;19.502;2022-09-09T06:22:21;6.03;;;4.03;;
70635;SDS011;58206;47.310;19.502;2022-09-09T06:25:05;12.40;;;4.28;;
70635;SDS011;58206;47.310;19.502;2022-09-09T06:27:50;5.20;;;3.70;;
70635;SDS011;58206;47.310;19.502;2022-09-09T06:30:34;6.60;;;4.10;;
70635;SDS011;58206;47.310;19.502;2022-09-09T06:33:18;5.45;;;3.60;;
70635;SDS011;58206;47.310;19.502;2022-09-09T06:36:03;5.07;;;3.40;;
70635;SDS011;58206;47.310;19.502;2022-09-09T06:38:48;5.97;;;3.70;;
70635;SDS011;58206;47.310;19.502;2022-09-09T06:41:33;4.80;;;3.63;;
70635;SDS011;58206;47.310;19.502;2022-09-09T06:44:20;5.60;;;3.78;;
70635;SDS011;58206;47.310;19.502;2022-09-09T06:47:04;6.88;;;3.55;;
70635;SDS011;58206;47.310;19.502;2022-09-09T06:49:51;5.95;;;3.30;;
70635;SDS011;58206;47.310;19.502;2022-09-09T06:52:36;6.43;;;3.55;;
70635;SDS011;58206;47.310;19.502;2022-09-09T06:55:21;5.40;;;3.50;;
70635;SDS011;58206;47.310;19.502;2022-09-09T06:58:09;6.22;;;3.92;;
70635;SDS011;58206;47.310;19.502;2022-09-09T07:01:00;6.05;;;4.00;;
70635;SDS011;58206;47.310;19.502;2022-09-09T07:03:46;6.20;;;3.72;;
70635;SDS011;58206;47.310;19.502;2022-09-09T07:06:33;6.82;;;3.45;;
70635;SDS011;58206;47.310;19.502;2022-09-09T07:09:21;5.73;;;3.50;;
70635;SDS011;58206;47.310;19.502;2022-09-09T07:12:07;5.82;;;3.75;;
70635;SDS011;58206;47.310;19.502;2022-09-09T07:14:54;6.65;;;4.22;;
70635;SDS011;58206;47.310;19.502;2022-09-09T07:17:39;6.20;;;3.85;;
70635;SDS011;58206;47.310;19.502;2022-09-09T07:20:24;5.72;;;4.00;;
70635;SDS011;58206;47.310;19.502;2022-09-09T07:23:09;7.03;;;3.70;;
70635;SDS011;58206;47.310;19.502;2022-09-09T07:25:54;6.05;;;3.90;;
70635;SDS011;58206;47.310;19.502;2022-09-09T07:28:39;8.30;;;4.30;;
70635;SDS011;58206;47.310;19.502;2022-09-09T07:31:28;7.38;;;4.10;;
70635;SDS011;58206;47.310;19.502;2022-09-09T07:34:14;5.90;;;4.20;;
70635;SDS011;58206;47.310;19.502;2022-09-09T07:36:59;5.73;;;4.30;;
70635;SDS011;58206;47.310;19.502;2022-09-09T07:39:43;5.10;;;3.45;;
70635;SDS011;58206;47.310;19.502;2022-09-09T07:42:28;7.90;;;4.00;;
70635;SDS011;58206;47.310;19.502;2022-09-09T07:45:13;5.22;;;3.70;;
70635;SDS011;58206;47.310;19.502;2022-09-09T07:47:58;6.55;;;4.55;;
70635;SDS011;58206;47.310;19.502;2022-09-09T07:50:43;7.60;;;4.47;;
70635;SDS011;58206;47.310;19.502;2022-09-09T07:53:28;5.75;;;4.43;;
70635;SDS011;58206;47.310;19.502;2022-09-09T07:56:14;6.07;;;3.97;;
70635;SDS011;58206;47.310;19.502;2022-09-09T07:59:02;5.40;;;3.53;;
70635;SDS011;58206;47.310;19.502;2022-09-09T08:01:49;6.70;;;3.90;;
70635;SDS011;58206;47.310;19.502;2022-09-09T08:04:39;5.90;;;3.90;;
70635;SDS011;58206;47.310;19.502;2022-09-09T08:07:24;7.22;;;3.42;;
70635;SDS011;58206;47.310;19.502;2022-09-09T08:10:12;5.68;;;4.03;;
70635;SDS011;58206;47.310;19.502;2022-09-09T08:12:59;5.90;;;3.47;;
70635;SDS011;58206;47.310;19.502;2022-09-09T08:15:43;5.35;;;3.90;;
70635;SDS011;58206;47.310;19.502;2022-09-09T08:18:28;5.47;;;3.47;;
70635;SDS011;58206;47.310;19.502;2022-09-09T08:21:14;4.57;;;3.90;;
70635;SDS011;58206;47.310;19.502;2022-09-09T08:24:01;5.53;;;3.75;;
70635;SDS011;58206;47.310;19.502;2022-09-09T08:26:47;5.38;;;3.50;;
70635;SDS011;58206;47.310;19.502;2022-09-09T08:29:35;5.55;;;3.97;;
70635;SDS011;58206;47.310;19.502;2022-09-09T08:32:20;4.77;;;3.67;;
70635;SDS011;58206;47.310;19.502;2022-09-09T08:35:04;5.07;;;3.30;;
70635;SDS011;58206;47.310;19.502;2022-09-09T08:37:52;5.65;;;3.50;;
70635;SDS011;58206;47.310;19.502;2022-09-09T08:40:37;4.85;;;3.47;;
70635;SDS011;58206;47.310;19.502;2022-09-09T08:43:25;4.47;;;2.97;;
70635;SDS011;58206;47.310;19.502;2022-09-09T08:46:18;5.80;;;2.90;;
70635;SDS011;58206;47.310;19.502;2022-09-09T08:49:18;6.35;;;3.83;;
70635;SDS011;58206;47.310;19.502;2022-09-09T08:52:09;6.38;;;3.65;;
70635;SDS011;58206;47.310;19.502;2022-09-09T08:54:56;4.65;;;3.13;;
70635;SDS011;58206;47.310;19.502;2022-09-09T08:57:43;5.28;;;3.50;;
70635;SDS011;58206;47.310;19.502;2022-09-09T09:00:34;4.80;;;3.20;;
70635;SDS011;58206;47.310;19.502;2022-09-09T09:03:30;4.63;;;3.20;;
70635;SDS011;58206;47.310;19.502;2022-09-09T09:11:55;4.43;;;3.20;;
70635;SDS011;58206;47.310;19.502;2022-09-09T09:14:46;5.93;;;3.30;;
70635;SDS011;58206;47.310;19.502;2022-09-09T09:17:31;7.47;;;3.50;;
70635;SDS011;58206;47.310;19.502;2022-09-09T09:20:20;5.50;;;3.58;;
70635;SDS011;58206;47.310;19.502;2022-09-09T09:23:06;5.88;;;3.35;;
70635;SDS011;58206;47.310;19.502;2022-09-09T09:25:55;7.00;;;3.72;;
70635;SDS011;58206;47.310;19.502;2022-09-09T09:28:42;5.03;;;3.60;;
70635;SDS011;58206;47.310;19.502;2022-09-09T09:31:33;4.07;;;2.72;;
70635;SDS011;58206;47.310;19.502;2022-09-09T09:34:18;4.07;;;2.08;;
70635;SDS011;58206;47.310;19.502;2022-09-09T09:37:07;3.67;;;1.92;;
70635;SDS011;58206;47.310;19.502;2022-09-09T09:40:18;4.43;;;2.20;;
70635;SDS011;58206;47.310;19.502;2022-09-09T09:43:01;4.60;;;2.00;;
70635;SDS011;58206;47.310;19.502;2022-09-09T09:45:48;4.88;;;2.00;;
70635;SDS011;58206;47.310;19.502;2022-09-09T09:48:33;3.90;;;1.92;;
70635;SDS011;58206;47.310;19.502;2022-09-09T09:51:19;5.13;;;1.90;;
70635;SDS011;58206;47.310;19.502;2022-09-09T09:56:55;4.80;;;2.30;;
70635;SDS011;58206;47.310;19.502;2022-09-09T09:59:39;4.68;;;1.92;;
70635;SDS011;58206;47.310;19.502;2022-09-09T10:02:36;5.10;;;1.90;;
70635;SDS011;58206;47.310;19.502;2022-09-09T10:05:27;3.80;;;1.80;;
70635;SDS011;58206;47.310;19.502;2022-09-09T10:08:17;4.95;;;1.95;;
70635;SDS011;58206;47.310;19.502;2022-09-09T10:11:14;4.30;;;2.10;;
70635;SDS011;58206;47.310;19.502;2022-09-09T10:14:12;3.80;;;2.10;;
70635;SDS011;58206;47.310;19.502;2022-09-09T10:31:59;4.25;;;2.13;;
70635;SDS011;58206;47.310;19.502;2022-09-09T10:34:55;5.75;;;1.95;;
70635;SDS011;58206;47.310;19.502;2022-09-09T10:40:48;5.37;;;1.70;;
70635;SDS011;58206;47.310;19.502;2022-09-09T10:55:24;3.73;;;1.60;;
70635;SDS011;58206;47.310;19.502;2022-09-09T10:58:17;4.47;;;1.60;;
70635;SDS011;58206;47.310;19.502;2022-09-09T11:01:17;3.85;;;1.20;;
70635;SDS011;58206;47.310;19.502;2022-09-09T11:04:05;6.38;;;3.63;;
70635;SDS011;58206;47.310;19.502;2022-09-09T11:06:54;5.82;;;1.80;;
70635;SDS011;58206;47.310;19.502;2022-09-09T11:09:44;3.63;;;1.70;;
70635;SDS011;58206;47.310;19.502;2022-09-09T11:12:30;4.25;;;1.63;;
70635;SDS011;58206;47.310;19.502;2022-09-09T11:15:23;3.15;;;1.45;;
70635;SDS011;58206;47.310;19.502;2022-09-09T11:18:11;3.75;;;1.40;;
70635;SDS011;58206;47.310;19.502;2022-09-09T11:20:58;3.22;;;1.45;;
70635;SDS011;58206;47.310;19.502;2022-09-09T11:23:46;4.07;;;1.50;;
70635;SDS011;58206;47.310;19.502;2022-09-09T11:26:36;3.83;;;1.55;;
70635;SDS011;58206;47.310;19.502;2022-09-09T11:29:26;3.45;;;1.65;;
70635;SDS011;58206;47.310;19.502;2022-09-09T11:37:54;3.70;;;1.20;;
70635;SDS011;58206;47.310;19.502;2022-09-09T11:40:39;3.72;;;1.20;;
70635;SDS011;58206;47.310;19.502;2022-09-09T11:43:28;5.82;;;1.23;;
70635;SDS011;58206;47.310;19.502;2022-09-09T11:46:15;3.95;;;1.17;;
70635;SDS011;58206;47.310;19.502;2022-09-09T11:49:02;3.70;;;1.30;;
70635;SDS011;58206;47.310;19.502;2022-09-09T11:51:47;4.57;;;1.27;;
70635;SDS011;58206;47.310;19.502;2022-09-09T11:54:32;4.35;;;1.33;;
70635;SDS011;58206;47.310;19.502;2022-09-09T12:00:27;3.20;;;1.10;;
70635;SDS011;58206;47.310;19.502;2022-09-09T12:09:08;3.92;;;1.30;;
70635;SDS011;58206;47.310;19.502;2022-09-09T12:18:06;4.07;;;1.40;;
70635;SDS011;58206;47.310;19.502;2022-09-09T12:23:55;3.70;;;1.40;;
70635;SDS011;58206;47.310;19.502;2022-09-09T12:29:28;4.75;;;1.30;;
70635;SDS011;58206;47.310;19.502;2022-09-09T12:32:17;4.13;;;1.20;;
70635;SDS011;58206;47.310;19.502;2022-09-09T12:35:18;3.90;;;1.30;;
70635;SDS011;58206;47.310;19.502;2022-09-09T12:38:04;4.00;;;1.15;;
70635;SDS011;58206;47.310;19.502;2022-09-09T12:40:57;3.10;;;1.00;;
70635;SDS011;58206;47.310;19.502;2022-09-09T12:43:42;3.13;;;1.13;;
70635;SDS011;58206;47.310;19.502;2022-09-09T12:46:45;5.22;;;1.30;;
70635;SDS011;58206;47.310;19.502;2022-09-09T12:49:32;4.80;;;1.30;;
70635;SDS011;58206;47.310;19.502;2022-09-09T12:55:06;4.43;;;1.30;;
70635;SDS011;58206;47.310;19.502;2022-09-09T12:57:52;3.60;;;1.20;;
70635;SDS011;58206;47.310;19.502;2022-09-09T13:00:37;4.28;;;1.20;;
70635;SDS011;58206;47.310;19.502;2022-09-09T13:03:21;4.00;;;1.40;;
70635;SDS011;58206;47.310;19.502;2022-09-09T13:06:21;4.53;;;1.33;;
70635;SDS011;58206;47.310;19.502;2022-09-09T13:09:08;3.67;;;1.30;;
70635;SDS011;58206;47.310;19.502;2022-09-09T13:11:54;3.10;;;1.00;;
70635;SDS011;58206;47.310;19.502;2022-09-09T13:14:43;3.80;;;1.15;;
70635;SDS011;58206;47.310;19.502;2022-09-09T13:17:28;5.83;;;1.20;;
70635;SDS011;58206;47.310;19.502;2022-09-09T13:20:17;3.20;;;1.10;;
70635;SDS011;58206;47.310;19.502;2022-09-09T13:23:01;3.40;;;1.20;;
70635;SDS011;58206;47.310;19.502;2022-09-09T13:25:56;3.75;;;1.00;;
70635;SDS011;58206;47.310;19.502;2022-09-09T13:28:40;4.93;;;1.33;;
70635;SDS011;58206;47.310;19.502;2022-09-09T13:31:29;4.10;;;1.20;;
70635;SDS011;58206;47.310;19.502;2022-09-09T13:34:35;3.10;;;1.02;;
70635;SDS011;58206;47.310;19.502;2022-09-09T13:40:17;3.80;;;1.38;;
70635;SDS011;58206;47.310;19.502;2022-09-09T13:43:02;3.75;;;1.30;;
70635;SDS011;58206;47.310;19.502;2022-09-09T13:45:57;4.50;;;1.20;;
70635;SDS011;58206;47.310;19.502;2022-09-09T13:48:43;4.20;;;1.15;;
70635;SDS011;58206;47.310;19.502;2022-09-09T13:51:38;3.17;;;1.05;;
70635;SDS011;58206;47.310;19.502;2022-09-09T13:54:23;2.95;;;0.90;;
70635;SDS011;58206;47.310;19.502;2022-09-09T13:57:15;3.83;;;1.00;;
70635;SDS011;58206;47.310;19.502;2022-09-09T14:00:00;5.20;;;1.50;;
70635;SDS011;58206;47.310;19.502;2022-09-09T14:02:44;4.10;;;1.00;;
70635;SDS011;58206;47.310;19.502;2022-09-09T14:05:32;6.55;;;1.20;;
70635;SDS011;58206;47.310;19.502;2022-09-09T14:08:21;2.90;;;1.00;;
70635;SDS011;58206;47.310;19.502;2022-09-09T14:11:11;3.90;;;1.00;;
70635;SDS011;58206;47.310;19.502;2022-09-09T14:13:56;3.70;;;1.03;;
70635;SDS011;58206;47.310;19.502;2022-09-09T14:16:40;6.53;;;1.10;;
70635;SDS011;58206;47.310;19.502;2022-09-09T14:19:25;3.80;;;1.20;;
70635;SDS011;58206;47.310;19.502;2022-09-09T14:22:09;3.75;;;1.00;;
70635;SDS011;58206;47.310;19.502;2022-09-09T14:24:53;4.18;;;0.90;;
70635;SDS011;58206;47.310;19.502;2022-09-09T14:27:38;3.27;;;0.90;;
70635;SDS011;58206;47.310;19.502;2022-09-09T14:30:23;5.18;;;1.10;;
70635;SDS011;58206;47.310;19.502;2022-09-09T14:33:08;5.32;;;1.00;;
70635;SDS011;58206;47.310;19.502;2022-09-09T14:36:00;4.85;;;1.10;;
70635;SDS011;58206;47.310;19.502;2022-09-09T14:38:45;4.32;;;1.30;;
70635;SDS011;58206;47.310;19.502;2022-09-09T14:41:29;3.33;;;1.10;;
70635;SDS011;58206;47.310;19.502;2022-09-09T14:44:14;3.08;;;1.00;;
70635;SDS011;58206;47.310;19.502;2022-09-09T14:47:00;3.22;;;1.10;;
70635;SDS011;58206;47.310;19.502;2022-09-09T14:49:44;4.15;;;1.10;;
70635;SDS011;58206;47.310;19.502;2022-09-09T14:52:29;3.25;;;1.00;;
70635;SDS011;58206;47.310;19.502;2022-09-09T14:55:14;3.43;;;1.00;;
70635;SDS011;58206;47.310;19.502;2022-09-09T14:57:59;3.20;;;1.00;;
70635;SDS011;58206;47.310;19.502;2022-09-09T15:00:43;3.20;;;1.10;;
70635;SDS011;58206;47.310;19.502;2022-09-09T15:03:27;4.18;;;1.00;;
70635;SDS011;58206;47.310;19.502;2022-09-09T15:06:12;4.03;;;1.35;;
70635;SDS011;58206;47.310;19.502;2022-09-09T15:08:57;3.60;;;1.40;;
70635;SDS011;58206;47.310;19.502;2022-09-09T15:11:41;3.08;;;1.05;;
70635;SDS011;58206;47.310;19.502;2022-09-09T15:14:26;3.67;;;1.17;;
70635;SDS011;58206;47.310;19.502;2022-09-09T15:17:10;3.53;;;1.20;;
70635;SDS011;58206;47.310;19.502;2022-09-09T15:19:55;4.05;;;1.30;;
70635;SDS011;58206;47.310;19.502;2022-09-09T15:22:40;4.97;;;1.47;;
70635;SDS011;58206;47.310;19.502;2022-09-09T15:25:25;3.78;;;1.50;;
70635;SDS011;58206;47.310;19.502;2022-09-09T15:28:10;5.15;;;1.60;;
70635;SDS011;58206;47.310;19.502;2022-09-09T15:30:54;6.53;;;1.55;;
70635;SDS011;58206;47.310;19.502;2022-09-09T15:33:39;3.80;;;1.50;;
70635;SDS011;58206;47.310;19.502;2022-09-09T15:36:24;4.40;;;1.60;;
70635;SDS011;58206;47.310;19.502;2022-09-09T15:39:10;6.43;;;1.60;;
70635;SDS011;58206;47.310;19.502;2022-09-09T15:41:56;3.70;;;1.60;;
70635;SDS011;58206;47.310;19.502;2022-09-09T15:44:41;5.10;;;1.50;;
70635;SDS011;58206;47.310;19.502;2022-09-09T15:47:26;3.65;;;1.58;;
70635;SDS011;58206;47.310;19.502;2022-09-09T15:50:11;4.83;;;1.80;;
70635;SDS011;58206;47.310;19.502;2022-09-09T15:52:56;4.50;;;2.50;;
70635;SDS011;58206;47.310;19.502;2022-09-09T15:55:40;5.25;;;1.90;;
70635;SDS011;58206;47.310;19.502;2022-09-09T15:58:24;5.43;;;1.60;;
70635;SDS011;58206;47.310;19.502;2022-09-09T16:01:09;5.22;;;1.58;;
70635;SDS011;58206;47.310;19.502;2022-09-09T16:03:55;3.50;;;1.50;;
70635;SDS011;58206;47.310;19.502;2022-09-09T16:06:40;3.70;;;1.60;;
70635;SDS011;58206;47.310;19.502;2022-09-09T16:09:25;3.80;;;1.60;;
70635;SDS011;58206;47.310;19.502;2022-09-09T16:12:10;4.78;;;1.80;;
70635;SDS011;58206;47.310;19.502;2022-09-09T16:14:56;4.82;;;1.70;;
70635;SDS011;58206;47.310;19.502;2022-09-09T16:17:40;4.10;;;1.73;;
70635;SDS011;58206;47.310;19.502;2022-09-09T16:20:25;9.25;;;1.95;;
70635;SDS011;58206;47.310;19.502;2022-09-09T16:23:09;5.22;;;1.80;;
70635;SDS011;58206;47.310;19.502;2022-09-09T16:25:55;4.18;;;1.60;;
70635;SDS011;58206;47.310;19.502;2022-09-09T16:28:40;4.35;;;1.90;;
70635;SDS011;58206;47.310;19.502;2022-09-09T16:31:24;4.00;;;1.73;;
70635;SDS011;58206;47.310;19.502;2022-09-09T16:34:09;6.43;;;2.53;;
70635;SDS011;58206;47.310;19.502;2022-09-09T16:36:54;8.07;;;2.33;;
70635;SDS011;58206;47.310;19.502;2022-09-09T16:39:38;8.55;;;3.60;;
70635;SDS011;58206;47.310;19.502;2022-09-09T16:42:23;8.98;;;4.28;;
70635;SDS011;58206;47.310;19.502;2022-09-09T16:45:07;9.40;;;6.07;;
70635;SDS011;58206;47.310;19.502;2022-09-09T16:47:52;5.05;;;2.38;;
70635;SDS011;58206;47.310;19.502;2022-09-09T16:50:36;4.43;;;1.90;;
70635;SDS011;58206;47.310;19.502;2022-09-09T16:53:21;5.35;;;1.85;;
70635;SDS011;58206;47.310;19.502;2022-09-09T16:56:09;5.25;;;1.92;;
70635;SDS011;58206;47.310;19.502;2022-09-09T16:58:54;4.53;;;1.80;;
70635;SDS011;58206;47.310;19.502;2022-09-09T17:01:40;4.70;;;1.90;;
70635;SDS011;58206;47.310;19.502;2022-09-09T17:04:27;5.20;;;1.77;;
70635;SDS011;58206;47.310;19.502;2022-09-09T17:07:12;5.43;;;2.03;;
70635;SDS011;58206;47.310;19.502;2022-09-09T17:09:56;5.13;;;2.15;;
70635;SDS011;58206;47.310;19.502;2022-09-09T17:12:40;4.40;;;1.97;;
70635;SDS011;58206;47.310;19.502;2022-09-09T17:15:26;4.93;;;2.00;;
70635;SDS011;58206;47.310;19.502;2022-09-09T17:18:10;4.93;;;2.00;;
70635;SDS011;58206;47.310;19.502;2022-09-09T17:20:55;5.47;;;1.92;;
70635;SDS011;58206;47.310;19.502;2022-09-09T17:23:39;4.38;;;2.13;;
70635;SDS011;58206;47.310;19.502;2022-09-09T17:26:27;5.57;;;2.23;;
70635;SDS011;58206;47.310;19.502;2022-09-09T17:29:12;5.28;;;2.13;;
70635;SDS011;58206;47.310;19.502;2022-09-09T17:31:56;5.65;;;2.28;;
70635;SDS011;58206;47.310;19.502;2022-09-09T17:34:42;5.68;;;2.40;;
70635;SDS011;58206;47.310;19.502;2022-09-09T17:37:27;7.07;;;2.80;;
70635;SDS011;58206;47.310;19.502;2022-09-09T17:40:12;9.23;;;3.10;;
70635;SDS011;58206;47.310;19.502;2022-09-09T17:42:57;7.28;;;3.50;;
70635;SDS011;58206;47.310;19.502;2022-09-09T17:45:41;7.97;;;3.50;;
70635;SDS011;58206;47.310;19.502;2022-09-09T17:48:25;7.60;;;3.70;;
70635;SDS011;58206;47.310;19.502;2022-09-09T17:51:12;7.97;;;3.80;;
70635;SDS011;58206;47.310;19.502;2022-09-09T17:53:58;8.53;;;4.90;;
70635;SDS011;58206;47.310;19.502;2022-09-09T17:56:43;9.65;;;4.80;;
70635;SDS011;58206;47.310;19.502;2022-09-09T17:59:28;9.48;;;6.55;;
70635;SDS011;58206;47.310;19.502;2022-09-09T18:02:13;10.18;;;5.18;;